• Join FlightAware (Why Join?)
  • Login
  • US Flag 
10:01AM EDT


 

Airport Tracker/Info


-or-


 

Live Flight TrackerFlight Track Log ✈ VH-OLM ✈ 11-May-2012 ✈ YSSY / SYD - YSWG / WGA

Flight Track Log - Related Links

Times and Time Zones

All times are in EDT time to prevent confusion due to time zone crossing. See the VH-OLM flight status page for this flight to view local times or setup timezone preferences in your user account.

Time Position Orientation Groundspeed Altitude Reporting Facility
EDT Latitude Longitude Course Direction KTS MPH feet Rate Location/Type
05:16AM -33.9914 151.1316 23° Northeast 15,300  Level Aus ATC (Calculated)
05:16AM -33.9914 151.1316 23° Northeast 15,300 -3,360 Level Aus ATC (Calculated)
05:17AM -34.0338 151.0885 30° Northeast 15,300 -3,780 Level Aus ATC (Calculated)
05:19AM -34.1080 151.0130 35° Northeast 15,300 -5,460 Level Aus ATC (Calculated)
05:19AM -34.1080 151.0130 35° Northeast 15,300 -10,500 Level Aus ATC (Calculated)
05:20AM -33.9201 151.1688 284° West 138 159 800 -9,540 Descending Aus ATC (RADAR)
05:21AM -33.9165 151.1505 237° Southwest 135 155 1,500 1,200 Climbing Aus ATC (RADAR)
05:21AM -33.9251 151.1343 226° Southwest 133 153 2,300 960 Climbing Aus ATC (RADAR)
05:22AM -33.9372 151.1194 223° Southwest 147 169 2,600 540 Climbing Aus ATC (RADAR)
05:23AM -33.9614 151.0920 251° West 174 200 3,100 660 Climbing Aus ATC (RADAR)
05:24AM -33.9721 151.0536 257° West 172 198 3,900 900 Climbing Aus ATC (RADAR)
05:24AM -33.9802 151.0099 228° Southwest 170 196 4,800 720 Climbing Aus ATC (RADAR)
05:25AM -34.0033 150.9792 204° Southwest 197 227 5,000 120 Climbing Aus ATC (RADAR)
05:26AM -34.0616 150.9473 206° Southwest 235 270 5,000 540 Level Aus ATC (RADAR)
05:27AM -34.1159 150.9159 206° Southwest 224 258 6,100 1,320 Climbing Aus ATC (RADAR)
05:28AM -34.1439 150.8993 207° Southwest 191 220 7,200 1,320 Climbing Aus ATC (RADAR)
05:28AM -34.1705 150.8830 207° Southwest 184 212 7,800 1,200 Climbing Aus ATC (RADAR)
05:29AM -34.2172 150.8547 206° Southwest 187 215 8,800 1,380 Climbing Aus ATC (RADAR)
05:30AM -34.2833 150.8148 215° Southwest 185 213 10,300 1,500 Climbing Aus ATC (RADAR)
05:31AM -34.3493 150.7585 235° Southwest 179 206 11,800 900 Climbing Aus ATC (RADAR)
05:32AM -34.3949 150.6803 233° Southwest 211 243 12,100 120 Climbing Aus ATC (RADAR)
05:33AM -34.4337 150.6169 233° Southwest 234 269 12,100  Level Aus ATC (RADAR)
05:33AM -34.4603 150.5737 234° Southwest 237 273 12,100  Level Aus ATC (RADAR)
05:34AM -34.4902 150.5237 234° Southwest 240 276 12,100  Level Aus ATC (RADAR)
05:35AM -34.5406 150.4407 233° Southwest 240 276 12,100  Level Aus ATC (RADAR)
05:36AM -34.5843 150.3688 234° Southwest 240 276 12,100  Level Aus ATC (RADAR)
05:37AM -34.6340 150.2861 254° West 239 275 12,100  Level Aus ATC (RADAR)
05:38AM -34.6526 150.2090 260° West 234 269 12,100  Level Aus ATC (RADAR)
05:38AM -34.6609 150.1491 259° West 235 270 12,100  Level Aus ATC (RADAR)
05:39AM -34.6741 150.0629 259° West 234 269 12,100  Level Aus ATC (RADAR)
05:40AM -34.6906 149.9577 260° West 232 267 12,100  Level Aus ATC (RADAR)
05:41AM -34.7065 149.8525 259° West 231 266 12,100  Level Aus ATC (RADAR)
05:42AM -34.7227 149.7485 259° West 229 264 12,100  Level Aus ATC (RADAR)
05:43AM -34.7366 149.6576 260° West 229 264 12,100  Level Aus ATC (RADAR)
05:43AM -34.7461 149.5928 259° West 228 262 12,100  Level Aus ATC (RADAR)
05:44AM -34.7589 149.5088 260° West 229 264 12,100  Level Aus ATC (RADAR)
05:45AM -34.7705 149.4311 260° West 229 264 12,100  Level Aus ATC (RADAR)
05:46AM -34.7823 149.3533 260° West 229 264 12,100  Level Aus ATC (RADAR)
05:47AM -34.7939 149.2756 260° West 229 264 12,100  Level Aus ATC (RADAR)
05:48AM -34.8054 149.1978 260° West 229 264 12,100  Level Aus ATC (RADAR)
05:49AM -34.8143 149.1393 260° West 230 265 12,100  Level Aus ATC (RADAR)
05:50AM -34.8209 149.0935 260° West 231 266 12,100  Level Aus ATC (RADAR)
05:50AM -34.8297 149.0347 255° West 232 267 12,100  Level Aus ATC (RADAR)
05:51AM -34.8457 148.9642 254° West 231 266 12,100  Level Aus ATC (RADAR)
05:52AM -34.8588 148.9066 255° West 231 266 12,100  Level Aus ATC (RADAR)
05:53AM -34.8686 148.8617 255° West 231 266 12,100  Level Aus ATC (RADAR)
05:53AM -34.8783 148.8170 255° West 230 265 12,100  Level Aus ATC (RADAR)
05:54AM -34.8881 148.7719 255° West 232 267 12,100  Level Aus ATC (RADAR)
05:54AM -34.8977 148.7270 256° West 230 265 12,100  Level Aus ATC (RADAR)
05:55AM -34.9070 148.6818 259° West 233 268 12,100  Level Aus ATC (RADAR)
05:55AM -34.9131 148.6427 259° West 232 267 12,100  Level Aus ATC (RADAR)
05:56AM -34.9224 148.5837 259° West 232 267 12,100  Level Aus ATC (RADAR)
05:57AM -34.9288 148.5451 259° West 229 264 12,100  Level Aus ATC (RADAR)
05:57AM -34.9362 148.4998 258° West 232 267 12,100  Level Aus ATC (RADAR)
05:58AM -34.9437 148.4551 259° West 225 259 12,100  Level Aus ATC (RADAR)
05:58AM -34.9511 148.4094 258° West 231 266 12,100  Level Aus ATC (RADAR)
05:59AM -34.9576 148.3706 259° West 229 264 12,100  Level Aus ATC (RADAR)
05:59AM -34.9646 148.3252 259° West 228 262 12,100  Level Aus ATC (RADAR)
06:00AM -34.9720 148.2798 259° West 230 265 12,100 -120 Level Aus ATC (RADAR)
06:01AM -34.9795 148.2340 259° West 234 269 12,000 -480 Descending Aus ATC (RADAR)
06:01AM -34.9904 148.1667 259° West 239 275 11,500 -540 Descending Aus ATC (RADAR)
06:02AM -34.9999 148.1061 259° West 237 273 11,200 -540 Descending Aus ATC (RADAR)
06:03AM -35.0084 148.0523 259° West 241 277 10,800 -600 Descending Aus ATC (RADAR)
06:04AM -35.0181 147.9922 259° West 235 270 10,400 -1,200 Descending Aus ATC (RADAR)
06:05AM -35.0306 147.9127 259° West 240 276 8,800 -1,620 Descending Aus ATC (RADAR)
06:05AM -35.0401 147.8538 259° West 233 268 7,600 -1,680 Descending Aus ATC (RADAR)
06:06AM -35.0464 147.8150 259° West 232 267 6,700 -1,740 Descending Aus ATC (RADAR)
06:07AM -35.0566 147.7492 257° West 235 270 5,300 -1,380 Descending Aus ATC (RADAR)
06:08AM -35.0700 147.6794 242° Southwest 227 261 4,300 -960 Descending Aus ATC (RADAR)
06:08AM -35.0900 147.6327 239° Southwest 202 232 3,700 -1,020 Descending Aus ATC (RADAR)
06:09AM -35.1063 147.6001 239° Southwest 194 223 3,000 -1,260 Descending Aus ATC (RADAR)